Terminal Aerodrome Forecast
Issued by NWS

Home | Current Version | Previous Version | Text Only | Print | Product List | Glossary On
Versions: 1 2 3 4 5 6 7 8 9 10 11 12 13 14 15 16 17
000
FTUS45 KTWC 241720
TAFOLS
TAF
KOLS 241720Z 2418/2518 28009KT P6SM FEW120 SCT180
     FM242100 32011KT P6SM SCT120 SCT150
     FM250300 12010KT P6SM SCT120 BKN150
     FM251600 20005KT P6SM SCT120 SCT150=

USA.gov is the U.S. government's official web portal to all federal, state and local government web resources and services.